Clifford Maersk — OYRO2 — position and weather

sailwx.info

Track history (hours):
 
Tides and Currents Weather Stations Pressure Air Temp Water Temp Dewpoint Dewpoint Depression Visibility Wind Speed Wind Dir Waves Ship Positions

Clifford Maersk

Last reported at 2015-Jun-25 20:18 UTC. Time now 2015-Jul-01 15:11 UTC.
Position N 30°39' E 123°23'.

Type: Ship (hazmat cat A). MMSI: 219840000.

Date/timePositionNaut miles runAvg speedWind from/ knotsBaromVisibWave heightAir tempDewpointWater temp
2015-Jun-25 20:18N 30°39' E 123°23'2121.7
2015-Jun-25 19:19N 30°19' E 123°14'1621.2
2015-Jun-25 18:33N 30°07' E 123°01'2020.5
2015-Jun-25 17:33N 29°53' E 122°44'1918.6
2015-Jun-25 16:34N 29°45' E 122°25'1010.3
2015-Jun-25 15:33N 29°49' E 122°14'1010.0
2015-Jun-25 14:33N 29°47' E 122°03'2 0.2
2015-Jun-25 05:25N 29°46' E 122°00'0 0.0
2015-Jun-24 22:33N 29°46' E 122°00'7 6.9
2015-Jun-24 21:33N 29°49' E 122°08'10 9.6
2015-Jun-24 20:33N 29°46' E 122°18'7 4.4
2015-Jun-24 19:03N 29°42' E 122°24'0 0.1
2015-Jun-24 18:09N 29°42' E 122°24'0 0.1
2015-Jun-24 17:27N 29°42' E 122°24'0 0.1
2015-Jun-24 16:21N 29°42' E 122°24'0 0.2
2015-Jun-24 15:33N 29°42' E 122°24'0 0.0
2015-Jun-24 13:15N 29°42' E 122°24'0 0.1
2015-Jun-24 12:21N 29°42' E 122°24'0 0.1
2015-Jun-24 11:33N 29°42' E 122°24'0 0.1
2015-Jun-24 08:16N 29°42' E 122°24'1 1.8
2015-Jun-24 07:33N 29°43' E 122°25'9 8.9
2015-Jun-24 06:33N 29°45' E 122°35'9 9.3
2015-Jun-24 05:33N 29°52' E 122°42'40 7.7
2015-Jun-24 00:21N 30°31' E 122°31'1213.6
2015-Jun-23 23:30N 30°33' E 122°18'1212.9
2015-Jun-23 22:33N 30°37' E 122°04'1 0.3
2015-Jun-23 20:27N 30°37' E 122°04'0 0.0
2015-Jun-23 19:30N 30°37' E 122°04'0 0.0
2015-Jun-23 19:03N 30°37' E 122°04'30 1.2
2015-Jun-22 19:19N 30°28' E 122°37'3 1.7
2015-Jun-22 17:26N 30°26' E 122°34'6 1.1
2015-Jun-22 12:22N 30°30' E 122°30'5 5.9
2015-Jun-22 11:31N 30°32' E 122°25'  
Track history (hours):
 
Tides and Currents Weather Stations Pressure Air Temp Water Temp Dewpoint Dewpoint Depression Visibility Wind Speed Wind Dir Waves Ship Positions

Clifford Maersk

Last reported at 2015-Jun-25 20:18 UTC. Time now 2015-Jul-01 15:11 UTC.
Position N 30°39' E 123°23'.

Type: Ship (hazmat cat A). MMSI: 219840000.

Date/timePositionNaut miles runAvg speedWind from/ knotsBaromVisibWave heightAir tempDewpointWater temp
2015-Jun-25 20:18N 30°39' E 123°23'2121.7
2015-Jun-25 19:19N 30°19' E 123°14'1621.2
2015-Jun-25 18:33N 30°07' E 123°01'2020.5
2015-Jun-25 17:33N 29°53' E 122°44'1918.6
2015-Jun-25 16:34N 29°45' E 122°25'1010.3
2015-Jun-25 15:33N 29°49' E 122°14'1010.0
2015-Jun-25 14:33N 29°47' E 122°03'2 0.2
2015-Jun-25 05:25N 29°46' E 122°00'0 0.0
2015-Jun-24 22:33N 29°46' E 122°00'7 6.9
2015-Jun-24 21:33N 29°49' E 122°08'10 9.6
2015-Jun-24 20:33N 29°46' E 122°18'7 4.4
2015-Jun-24 19:03N 29°42' E 122°24'0 0.1
2015-Jun-24 18:09N 29°42' E 122°24'0 0.1
2015-Jun-24 17:27N 29°42' E 122°24'0 0.1
2015-Jun-24 16:21N 29°42' E 122°24'0 0.2
2015-Jun-24 15:33N 29°42' E 122°24'0 0.0
2015-Jun-24 13:15N 29°42' E 122°24'0 0.1
2015-Jun-24 12:21N 29°42' E 122°24'0 0.1
2015-Jun-24 11:33N 29°42' E 122°24'0 0.1
2015-Jun-24 08:16N 29°42' E 122°24'1 1.8
2015-Jun-24 07:33N 29°43' E 122°25'9 8.9
2015-Jun-24 06:33N 29°45' E 122°35'9 9.3
2015-Jun-24 05:33N 29°52' E 122°42'40 7.7
2015-Jun-24 00:21N 30°31' E 122°31'1213.6
2015-Jun-23 23:30N 30°33' E 122°18'1212.9
2015-Jun-23 22:33N 30°37' E 122°04'1 0.3
2015-Jun-23 20:27N 30°37' E 122°04'0 0.0
2015-Jun-23 19:30N 30°37' E 122°04'0 0.0
2015-Jun-23 19:03N 30°37' E 122°04'30 1.2
2015-Jun-22 19:19N 30°28' E 122°37'3 1.7
2015-Jun-22 17:26N 30°26' E 122°34'6 1.1
2015-Jun-22 12:22N 30°30' E 122°30'5 5.9
2015-Jun-22 11:31N 30°32' E 122°25'  

Dump ship's entire track history